Time;durP1;ratioP1;P1;durP2;ratioP2;P2;SDS_P1;SDS_P2;PMS_P1;PMS_P2;Temp;Humidity;BMP_temperature;BMP_pressure;BME280_temperature;BME280_humidity;BME280_pressure;Samples;Min_cycle;Max_cycle;Signal;HPM_P1;HPM_P2
2022/01/25 00:26:29;;;;;;;17.27;15.43;;;;;;;3.53;89.00;102920.97;5093559;28;20184;-69
2022/01/25 00:31:28;;;;;;;20.23;16.03;;;;;;;3.55;89.18;102927.06;5093779;28;20204;-69
2022/01/25 00:33:55;;;;;;;20.13;15.90;;;;;;;3.54;89.21;102921.00;5096300;28;20192;-69
2022/01/25 00:36:24;;;;;;;18.13;15.87;;;;;;;3.56;89.16;102924.50;5113817;28;20216;-69
2022/01/25 00:38:52;;;;;;;22.93;16.47;;;;;;;3.56;88.99;102916.72;5113701;28;20250;-69
2022/01/25 00:41:20;;;;;;;22.83;15.57;;;;;;;3.58;89.02;102924.56;5114265;28;20226;-69
2022/01/25 00:43:47;;;;;;;17.37;15.50;;;;;;;3.58;88.94;102919.38;5112122;28;20208;-69
2022/01/25 00:46:15;;;;;;;21.90;16.77;;;;;;;3.55;89.00;102914.13;5093558;28;20227;-69
2022/01/25 00:48:44;;;;;;;22.27;15.90;;;;;;;3.56;89.08;102914.13;5093237;28;20224;-70
2022/01/25 00:54:13;;;;;;;20.83;16.30;;;;;;;3.57;88.90;102917.59;5095742;28;20177;-70
2022/01/25 00:56:46;;;;;;;20.27;15.57;;;;;;;3.57;88.87;102923.69;5113793;28;20638;-70
2022/01/25 00:59:31;;;;;;;21.60;17.50;;;;;;;3.58;88.89;102921.97;5113887;28;20226;-69
2022/01/25 01:02:01;;;;;;;21.40;15.80;;;;;;;3.57;88.98;102915.00;5113583;28;20185;-69
2022/01/25 01:04:31;;;;;;;25.37;17.30;;;;;;;3.58;88.91;102909.91;5106389;28;20192;-69
2022/01/25 01:06:58;;;;;;;18.53;16.57;;;;;;;3.56;88.93;102918.44;5093036;28;20208;-69
2022/01/25 01:09:24;;;;;;;18.17;16.07;;;;;;;3.57;89.01;102917.59;5093116;28;20181;-69
2022/01/25 01:12:01;;;;;;;19.83;16.43;;;;;;;3.52;89.14;102914.06;5074972;28;20189;-69
2022/01/25 01:14:53;;;;;;;18.20;16.10;;;;;;;3.52;89.23;102909.75;5099526;28;20208;-70
2022/01/25 01:28:48;;;;;;;17.90;15.97;;;;;;;3.52;89.26;102920.09;5113529;28;20261;-69
2022/01/25 01:39:50;;;;;;;31.83;21.37;;;;;;;3.49;89.50;102901.88;5117304;28;20695;-70
2022/01/25 01:47:46;;;;;;;24.97;18.77;;;;;;;3.53;89.27;102903.72;5117062;28;20275;-70
2022/01/25 01:50:25;;;;;;;35.13;19.67;;;;;;;3.54;89.35;102900.28;5117407;28;20199;-69
2022/01/25 01:52:52;;;;;;;27.10;18.03;;;;;;;3.53;89.33;102895.97;5116497;28;20184;-70
2022/01/25 01:55:20;;;;;;;25.40;19.10;;;;;;;3.57;89.50;102902.97;5116983;28;20189;-69
2022/01/25 01:57:49;;;;;;;30.03;20.23;;;;;;;3.57;89.72;102900.38;5116601;28;20268;-69
2022/01/25 02:00:20;;;;;;;29.60;19.13;;;;;;;3.54;89.61;102897.69;5116656;28;20241;-69
2022/01/25 02:02:47;;;;;;;33.43;19.07;;;;;;;3.57;89.65;102902.06;5111677;28;20653;-70
2022/01/25 02:05:14;;;;;;;29.33;18.90;;;;;;;3.58;89.73;102898.66;5096094;28;20216;-69
2022/01/25 02:07:41;;;;;;;32.63;19.40;;;;;;;3.59;89.84;102895.22;5096069;28;20201;-70
2022/01/25 02:10:09;;;;;;;26.80;18.27;;;;;;;3.57;89.78;102902.97;5096015;28;20193;-69
2022/01/25 02:12:35;;;;;;;29.87;20.00;;;;;;;3.55;89.86;102898.56;5112352;28;20182;-69
2022/01/25 02:15:04;;;;;;;30.33;20.43;;;;;;;3.57;89.98;102900.38;5116363;28;20199;-69
2022/01/25 02:22:58;;;;;;;27.50;19.77;;;;;;;3.54;89.77;102889.06;5045276;28;20278;-69
2022/01/25 02:25:25;;;;;;;23.67;18.60;;;;;;;3.57;89.72;102881.34;5095752;28;20190;-69
2022/01/25 02:27:52;;;;;;;28.73;19.23;;;;;;;3.53;89.57;102885.59;5097672;28;20263;-70
2022/01/25 02:30:19;;;;;;;25.70;19.37;;;;;;;3.54;89.76;102881.28;5114728;28;20193;-70
2022/01/25 02:32:45;;;;;;;27.60;19.30;;;;;;;3.56;89.81;102883.06;5115146;28;20185;-69
2022/01/25 02:35:12;;;;;;;24.40;19.17;;;;;;;3.58;89.61;102878.81;5115950;28;20223;-69
2022/01/25 02:37:39;;;;;;;23.27;17.70;;;;;;;3.56;89.76;102883.06;5115527;28;20233;-70
2022/01/25 02:40:06;;;;;;;24.60;18.10;;;;;;;3.57;89.79;102877.06;5095435;28;20189;-69
2022/01/25 02:42:33;;;;;;;22.53;18.47;;;;;;;3.58;89.85;102877.94;5095394;28;20589;-69
2022/01/25 02:45:00;;;;;;;30.50;19.33;;;;;;;3.56;89.69;102875.28;5095326;28;20189;-69
2022/01/25 02:50:12;;;;;;;30.80;19.50;;;;;;;3.52;89.75;102883.84;5095528;28;20597;-70
2022/01/25 02:52:38;;;;;;;27.83;18.23;;;;;;;3.51;89.96;102876.06;5095489;28;20182;-69
2022/01/25 02:55:05;;;;;;;25.23;18.97;;;;;;;3.50;90.02;102875.19;5095472;28;20194;-69
2022/01/25 02:57:32;;;;;;;24.13;17.73;;;;;;;3.52;89.82;102872.63;5095604;28;20206;-70
2022/01/25 03:00:07;;;;;;;22.53;17.37;;;;;;;3.52;89.63;102877.81;5114155;28;20195;-70
2022/01/25 03:02:35;;;;;;;23.47;19.03;;;;;;;3.51;89.68;102870.88;5115718;28;20615;-70
2022/01/25 03:05:02;;;;;;;20.77;17.33;;;;;;;3.49;89.87;102870.81;5115322;28;20229;-70
2022/01/25 03:07:28;;;;;;;23.60;18.53;;;;;;;3.50;89.93;102882.94;5115225;28;20713;-70
2022/01/25 03:09:56;;;;;;;27.40;19.77;;;;;;;3.50;89.95;102874.28;5096384;28;20198;-69
2022/01/25 03:12:33;;;;;;;26.67;18.70;;;;;;;3.56;89.54;102874.41;5094838;28;20235;-70
2022/01/25 03:15:23;;;;;;;29.40;19.70;;;;;;;3.55;89.54;102876.13;5095062;28;20534;-70
2022/01/25 03:17:54;;;;;;;26.67;18.93;;;;;;;3.55;89.37;102875.25;5095223;28;20212;-70
2022/01/25 03:20:33;;;;;;;27.17;19.67;;;;;;;3.56;89.19;102869.25;5115336;28;20247;-70
2022/01/25 03:23:05;;;;;;;37.23;20.83;;;;;;;3.55;89.00;102870.97;5097446;28;20199;-69
2022/01/25 03:25:32;;;;;;;51.80;23.93;;;;;;;3.63;88.34;102881.50;5115272;28;20620;-69
2022/01/25 03:27:59;;;;;;;54.53;22.70;;;;;;;3.54;88.36;102876.97;5112684;28;20217;-69
2022/01/25 03:30:26;;;;;;;50.37;22.90;;;;;;;3.51;88.31;102874.34;5099461;28;20193;-70
2022/01/25 03:32:52;;;;;;;41.47;22.97;;;;;;;3.58;87.99;102877.94;5093746;28;20202;-69
2022/01/25 03:35:19;;;;;;;54.80;24.60;;;;;;;3.69;87.28;102867.81;5094364;28;20235;-69
2022/01/25 03:37:45;;;;;;;48.50;24.83;;;;;;;3.42;88.02;102870.63;5094245;28;20243;-70
2022/01/25 03:40:12;;;;;;;54.40;26.23;;;;;;;3.39;88.30;102866.28;5114390;28;20189;-70
2022/01/25 03:42:39;;;;;;;44.37;23.73;;;;;;;3.40;88.48;102860.25;5114629;28;20187;-70
2022/01/25 03:45:08;;;;;;;62.40;27.30;;;;;;;3.36;88.70;102861.03;5114477;28;20214;-69
2022/01/25 03:47:57;;;;;;;61.90;25.20;;;;;;;3.34;88.62;102856.66;5114474;28;20205;-70
2022/01/25 03:50:24;;;;;;;54.43;26.43;;;;;;;3.44;88.32;102863.81;5094429;28;20577;-70
2022/01/25 03:52:50;;;;;;;64.40;25.90;;;;;;;3.43;87.85;102850.00;5103078;28;20655;-70
2022/01/25 03:55:18;;;;;;;45.30;23.37;;;;;;;3.42;87.97;102852.50;5114417;28;20194;-70
2022/01/25 03:57:44;;;;;;;52.20;23.97;;;;;;;3.47;88.05;102856.09;5114560;28;20209;-70
2022/01/25 04:00:12;;;;;;;50.17;24.93;;;;;;;3.41;88.26;102854.22;5094446;28;20227;-70
2022/01/25 04:02:47;;;;;;;71.43;26.17;;;;;;;3.62;87.26;102852.97;5094203;28;20209;-70
2022/01/25 04:05:21;;;;;;;69.27;25.20;;;;;;;3.55;87.05;102849.38;5094377;28;20254;-69
2022/01/25 04:07:50;;;;;;;69.07;25.17;;;;;;;3.49;87.44;102857.88;5093919;28;20206;-70
2022/01/25 04:10:18;;;;;;;54.70;23.77;;;;;;;3.50;87.37;102844.09;5113393;28;20190;-70
2022/01/25 04:12:47;;;;;;;34.60;19.30;;;;;;;3.52;87.67;102841.53;5114134;28;20245;-69
2022/01/25 04:15:14;;;;;;;27.70;19.30;;;;;;;3.45;88.04;102835.34;5114353;28;20646;-69
2022/01/25 04:17:45;;;;;;;37.10;20.23;;;;;;;3.43;88.44;102844.81;5108645;28;20223;-70
2022/01/25 04:20:20;;;;;;;29.90;20.40;;;;;;;3.44;88.68;102851.72;5093767;28;20548;-69
2022/01/25 04:25:31;;;;;;;45.30;22.43;;;;;;;3.34;89.08;102844.56;5094691;28;20234;-69
2022/01/25 04:27:57;;;;;;;68.50;24.53;;;;;;;3.35;88.63;102848.91;5093610;28;20209;-69
2022/01/25 04:30:24;;;;;;;70.00;24.10;;;;;;;3.39;88.31;102847.28;5093735;28;20533;-69
2022/01/25 04:35:43;;;;;;;57.57;25.37;;;;;;;3.45;87.83;102839.66;5108146;28;20179;-69
2022/01/25 04:49:19;;;;;;;33.70;20.53;;;;;;;3.39;88.82;102840.38;5114142;28;20174;-70
2022/01/25 04:56:55;;;;;;;24.57;17.97;;;;;;;3.38;89.24;102842.94;5112328;28;20186;-69
2022/01/25 04:59:51;;;;;;;35.23;19.73;;;;;;;3.43;89.34;102839.63;5118383;28;20187;-69
2022/01/25 05:02:17;;;;;;;42.70;22.13;;;;;;;3.42;89.37;102840.44;5111898;28;20191;-69
2022/01/25 05:04:57;;;;;;;35.00;22.33;;;;;;;3.41;89.55;102843.88;5097594;28;20198;-69
2022/01/25 05:07:38;;;;;;;29.97;21.33;;;;;;;3.39;89.72;102837.81;5079047;28;20249;-70
2022/01/25 05:10:07;;;;;;;38.77;21.73;;;;;;;3.43;89.79;102833.53;5097674;28;20228;-69
2022/01/25 05:12:51;;;;;;;28.20;19.73;;;;;;;3.46;89.95;102828.47;5100391;28;20527;-70
2022/01/25 05:16:28;;;;;;;34.43;19.67;;;;;;;3.54;89.64;102835.53;5078872;28;20200;-69
2022/01/25 05:18:34;;;;;;;32.87;19.53;;;;;;;3.50;89.38;102840.63;5083012;28;20645;-69
2022/01/25 05:23:46;;;;;;;39.47;20.13;;;;;;;3.47;89.92;102838.84;5115564;28;20199;-70
2022/01/25 05:26:13;;;;;;;30.37;19.70;;;;;;;3.45;89.99;102844.84;5117292;28;20185;-69
2022/01/25 05:28:40;;;;;;;32.73;22.57;;;;;;;3.44;90.07;102843.97;5117202;28;20211;-69
2022/01/25 05:31:06;;;;;;;50.33;21.67;;;;;;;3.44;90.09;102846.56;5117206;28;20188;-69
2022/01/25 05:37:44;;;;;;;54.30;22.20;;;;;;;3.47;89.93;102835.38;5097129;28;20230;-69
2022/01/25 05:40:16;;;;;;;62.93;24.87;;;;;;;3.49;89.80;102837.16;5096930;28;20618;-69
2022/01/25 05:42:50;;;;;;;43.50;22.37;;;;;;;3.53;89.51;102833.81;5105594;28;20182;-69
2022/01/25 05:45:26;;;;;;;42.20;22.03;;;;;;;3.51;89.53;102832.91;5116853;28;20191;-69
2022/01/25 05:47:53;;;;;;;41.97;22.97;;;;;;;3.55;89.45;102823.47;5116825;28;20197;-70
2022/01/25 05:50:19;;;;;;;46.57;23.17;;;;;;;3.57;89.25;102827.84;5117238;28;20176;-69
2022/01/25 05:52:45;;;;;;;37.87;22.17;;;;;;;3.57;89.44;102824.38;5102136;28;20226;-69
2022/01/25 05:55:12;;;;;;;43.13;23.17;;;;;;;3.53;89.42;102822.56;5096336;28;20647;-69
2022/01/25 05:57:38;;;;;;;38.80;22.53;;;;;;;3.53;89.39;102832.94;5096159;28;20231;-70
2022/01/25 06:00:07;;;;;;;48.30;21.93;;;;;;;3.53;89.37;102828.63;5096322;28;20178;-69
2022/01/25 06:02:35;;;;;;;36.33;21.57;;;;;;;3.54;89.39;102834.66;5108240;28;20669;-69
2022/01/25 06:05:04;;;;;;;35.73;21.33;;;;;;;3.54;89.54;102832.97;5116896;28;20719;-68
2022/01/25 06:07:32;;;;;;;43.50;21.67;;;;;;;3.54;89.64;102830.38;5115327;28;20212;-70
2022/01/25 06:09:58;;;;;;;38.63;21.03;;;;;;;3.58;89.61;102836.50;5096466;28;20641;-70
2022/01/25 06:12:25;;;;;;;48.73;22.93;;;;;;;3.62;89.29;102833.13;5096024;28;20186;-70
2022/01/25 06:14:51;;;;;;;49.63;23.13;;;;;;;3.54;89.45;102832.09;5108346;28;20197;-70
2022/01/25 06:17:18;;;;;;;44.17;23.57;;;;;;;3.57;89.23;102837.31;5116159;28;20241;-69
2022/01/25 06:19:44;;;;;;;68.13;26.37;;;;;;;3.52;89.12;102832.06;5116376;28;20208;-69
2022/01/25 06:22:11;;;;;;;74.43;27.80;;;;;;;3.57;88.36;102834.72;5095966;28;20547;-69
2022/01/25 06:24:38;;;;;;;64.20;26.90;;;;;;;3.52;87.77;102829.47;5095983;28;20568;-69
2022/01/25 06:27:04;;;;;;;73.23;26.27;;;;;;;3.52;86.55;102832.06;5096232;28;20268;-70
2022/01/25 06:29:31;;;;;;;69.93;26.97;;;;;;;3.47;86.58;102830.19;5095555;28;20185;-69
2022/01/25 06:31:59;;;;;;;66.77;26.63;;;;;;;3.34;86.81;102831.63;5113273;28;20585;-70
2022/01/25 06:34:26;;;;;;;66.20;27.00;;;;;;;3.28;86.87;102837.53;5115931;28;20177;-70
2022/01/25 06:36:52;;;;;;;86.53;29.33;;;;;;;3.42;86.83;102835.25;5115788;28;20192;-70
2022/01/25 06:39:19;;;;;;;77.67;29.53;;;;;;;3.41;86.38;102830.94;5116100;28;20189;-70
2022/01/25 06:41:45;;;;;;;82.57;28.50;;;;;;;3.35;86.23;102832.50;5099865;28;20195;-70
2022/01/25 06:44:12;;;;;;;62.93;25.63;;;;;;;3.36;86.17;102837.75;5095533;28;20209;-70
2022/01/25 06:46:38;;;;;;;64.90;25.53;;;;;;;3.36;86.26;102842.91;5095126;28;20661;-70
2022/01/25 06:49:05;;;;;;;72.70;28.73;;;;;;;3.43;86.22;102846.50;5095233;28;20518;-70
2022/01/25 06:51:31;;;;;;;64.90;27.27;;;;;;;3.40;86.12;102849.91;5108686;28;20191;-70
2022/01/25 06:53:58;;;;;;;69.60;24.93;;;;;;;3.38;86.09;102843.81;5116077;28;20181;-70
2022/01/25 06:56:24;;;;;;;73.13;28.20;;;;;;;3.39;86.58;102835.22;5116048;28;20191;-70
2022/01/25 06:58:51;;;;;;;77.57;29.33;;;;;;;3.53;86.04;102838.09;5115370;28;20208;-70
2022/01/25 07:01:18;;;;;;;69.77;29.07;;;;;;;3.56;85.45;102836.44;5086036;28;20195;-70
2022/01/25 07:03:45;;;;;;;80.97;29.17;;;;;;;3.45;85.35;102844.84;5095188;28;20186;-70
2022/01/25 07:06:12;;;;;;;76.83;27.67;;;;;;;3.41;85.31;102848.19;5076698;28;20190;-70
2022/01/25 07:08:41;;;;;;;86.37;28.07;;;;;;;3.44;85.32;102846.56;5094882;28;20542;-70
2022/01/25 07:11:07;;;;;;;64.33;26.53;;;;;;;3.42;85.57;102849.94;5104311;28;20204;-70
2022/01/25 07:13:34;;;;;;;68.90;26.73;;;;;;;3.39;85.34;102861.09;5115209;28;20178;-70
2022/01/25 07:16:00;;;;;;;77.23;28.93;;;;;;;3.47;85.31;102838.84;5115147;28;20195;-70
2022/01/25 07:18:27;;;;;;;62.43;26.33;;;;;;;3.38;85.77;102851.59;5114689;28;20211;-70
2022/01/25 07:20:53;;;;;;;71.13;27.77;;;;;;;3.36;85.16;102842.91;5107361;28;20205;-70
2022/01/25 07:23:20;;;;;;;60.83;26.33;;;;;;;3.48;84.68;102839.72;5095602;28;20183;-70
2022/01/25 07:25:47;;;;;;;68.33;27.40;;;;;;;3.35;85.29;102835.97;5096084;28;20197;-70
2022/01/25 07:28:13;;;;;;;66.40;26.33;;;;;;;3.24;85.51;102837.47;5095670;28;20226;-69
2022/01/25 07:30:40;;;;;;;71.73;27.83;;;;;;;3.21;85.41;102839.94;5107361;28;20199;-70
2022/01/25 07:33:17;;;;;;;71.27;26.20;;;;;;;3.26;85.35;102847.00;5114776;28;20175;-70
2022/01/25 07:35:53;;;;;;;61.47;26.70;;;;;;;3.30;85.50;102840.19;5114114;28;20208;-70
2022/01/25 07:38:23;;;;;;;75.10;27.67;;;;;;;3.32;85.05;102843.69;5114128;28;20560;-70
2022/01/25 07:40:53;;;;;;;62.53;26.50;;;;;;;3.23;85.29;102843.47;5096650;28;20208;-69
2022/01/25 07:43:24;;;;;;;74.00;26.80;;;;;;;3.22;85.24;102842.59;5114760;28;20182;-69
2022/01/25 07:45:57;;;;;;;60.00;25.13;;;;;;;3.13;85.53;102846.66;5096115;28;20248;-69
2022/01/25 07:48:30;;;;;;;59.47;26.23;;;;;;;3.27;84.69;102855.63;5114408;28;20275;-68
2022/01/25 07:51:01;;;;;;;68.20;26.13;;;;;;;3.28;84.91;102849.59;5114421;28;20180;-69
2022/01/25 07:53:28;;;;;;;70.03;28.20;;;;;;;3.28;84.71;102859.97;5114356;28;20195;-69
2022/01/25 07:55:54;;;;;;;68.97;28.07;;;;;;;3.26;84.92;102864.25;5114337;28;20672;-69
2022/01/25 07:58:21;;;;;;;69.20;26.30;;;;;;;3.26;85.02;102866.84;5114846;28;20213;-69
2022/01/25 08:00:48;;;;;;;70.33;26.40;;;;;;;3.23;85.29;102864.19;5114524;28;20653;-69
2022/01/25 08:03:18;;;;;;;82.43;26.40;;;;;;;3.22;85.53;102858.13;5114494;28;20186;-69
2022/01/25 08:06:03;;;;;;;67.83;26.53;;;;;;;3.33;84.72;102858.38;5052193;28;20312;-69
2022/01/25 08:08:42;;;;;;;68.60;27.87;;;;;;;3.39;84.48;102870.59;5112056;28;20282;-69
2022/01/25 08:11:32;;;;;;;68.67;26.63;;;;;;;3.36;84.34;102865.31;5111922;28;20247;-69
2022/01/25 08:14:18;;;;;;;70.97;24.80;;;;;;;3.25;84.75;102863.38;5031573;28;20207;-69
2022/01/25 08:16:52;;;;;;;75.40;27.03;;;;;;;3.25;84.83;102867.69;5031930;28;20206;-69
2022/01/25 08:19:32;;;;;;;65.27;26.77;;;;;;;3.25;84.90;102867.69;5028079;28;20575;-69
2022/01/25 08:21:59;;;;;;;60.20;26.00;;;;;;;3.28;85.03;102863.44;5031334;28;20737;-69
2022/01/25 08:24:48;;;;;;;84.83;28.17;;;;;;;3.28;84.67;102867.72;5027555;28;20716;-69
2022/01/25 08:27:32;;;;;;;68.17;25.37;;;;;;;3.32;84.73;102864.38;4992398;28;20710;-69
2022/01/25 08:30:21;;;;;;;82.23;29.23;;;;;;;3.34;84.95;102867.00;5030653;28;20225;-69
2022/01/25 08:33:14;;;;;;;79.50;28.87;;;;;;;3.27;85.28;102864.28;5031183;28;20212;-69
2022/01/25 08:35:55;;;;;;;70.90;27.67;;;;;;;3.32;84.73;102866.97;5027424;28;20291;-69
2022/01/25 08:38:33;;;;;;;87.73;27.47;;;;;;;3.29;85.15;102870.38;5046134;28;20235;-69
2022/01/25 08:41:14;;;;;;;66.07;26.40;;;;;;;3.33;85.04;102862.66;5027986;28;20246;-69
2022/01/25 08:43:45;;;;;;;58.60;25.83;;;;;;;3.39;84.77;102870.59;5029827;28;20238;-69
2022/01/25 08:46:32;;;;;;;59.20;26.03;;;;;;;3.35;84.99;102869.63;4934019;29;20261;-69
2022/01/25 08:49:06;;;;;;;54.20;25.17;;;;;;;3.43;84.00;102873.28;4933827;29;20248;-69
2022/01/25 08:51:42;;;;;;;71.07;27.07;;;;;;;3.53;84.06;102875.25;4981356;28;20564;-69
2022/01/25 08:54:17;;;;;;;59.83;24.57;;;;;;;3.42;84.16;102881.00;5011228;28;20186;-69
2022/01/25 08:57:06;;;;;;;61.67;24.97;;;;;;;3.42;84.60;102883.59;5010785;28;20317;-69
2022/01/25 08:59:50;;;;;;;76.47;26.33;;;;;;;3.42;84.71;102876.69;5011314;28;20199;-69
2022/01/25 09:02:17;;;;;;;69.13;27.73;;;;;;;3.40;84.82;102882.69;5011236;28;20194;-69
2022/01/25 09:04:43;;;;;;;61.07;26.03;;;;;;;3.39;85.14;102887.00;5011249;28;20272;-69
2022/01/25 09:07:10;;;;;;;64.00;26.90;;;;;;;3.43;84.84;102887.94;5011465;28;20713;-69
2022/01/25 09:09:37;;;;;;;60.20;24.70;;;;;;;3.48;84.51;102886.31;5011436;28;20196;-69
2022/01/25 09:12:04;;;;;;;57.87;26.67;;;;;;;3.46;84.49;102881.13;5011438;28;20254;-69
2022/01/25 09:14:31;;;;;;;53.40;23.77;;;;;;;3.48;84.63;102881.16;5011149;28;20189;-69
2022/01/25 09:16:57;;;;;;;54.10;25.00;;;;;;;3.51;84.02;102881.22;5011281;28;20835;-69
2022/01/25 09:19:24;;;;;;;50.93;24.40;;;;;;;3.53;84.20;102885.59;5011298;28;20197;-69
2022/01/25 09:21:51;;;;;;;51.57;24.07;;;;;;;3.53;83.44;102879.53;5011592;28;20223;-69
2022/01/25 09:24:17;;;;;;;53.13;24.40;;;;;;;3.50;83.76;102889.81;5096659;28;20201;-69
2022/01/25 09:26:43;;;;;;;57.17;25.23;;;;;;;3.55;83.75;102885.63;5113814;28;20183;-69
2022/01/25 09:29:10;;;;;;;65.53;27.20;;;;;;;3.46;84.03;102893.19;5113673;28;20199;-69
2022/01/25 09:31:36;;;;;;;62.33;24.47;;;;;;;3.55;84.28;102894.25;5113229;28;20244;-68
2022/01/25 09:34:03;;;;;;;73.67;25.90;;;;;;;3.51;84.20;102900.25;5095214;28;20519;-69
2022/01/25 09:36:29;;;;;;;65.03;25.33;;;;;;;3.61;84.10;102890.06;5113568;28;20210;-69
2022/01/25 09:38:56;;;;;;;61.47;25.07;;;;;;;3.60;83.95;102889.19;5113176;28;20212;-69
2022/01/25 09:41:24;;;;;;;60.63;24.67;;;;;;;3.61;83.50;102892.66;5113544;28;20188;-69
2022/01/25 09:43:51;;;;;;;56.87;25.10;;;;;;;3.65;83.13;102900.56;5117506;28;20175;-69
2022/01/25 09:46:17;;;;;;;66.77;25.00;;;;;;;3.67;82.84;102895.41;5117414;28;20661;-69
2022/01/25 09:48:44;;;;;;;57.13;25.03;;;;;;;3.54;82.91;102899.41;5116938;28;20211;-69
2022/01/25 09:51:11;;;;;;;57.90;24.43;;;;;;;3.57;83.26;102907.25;5117097;28;20259;-69
2022/01/25 09:53:39;;;;;;;54.73;23.97;;;;;;;3.59;82.84;102901.28;5117116;28;20178;-69
2022/01/25 09:56:07;;;;;;;54.57;23.83;;;;;;;3.60;83.06;102907.34;5117083;28;20163;-69
2022/01/25 09:58:33;;;;;;;60.50;25.00;;;;;;;3.52;83.41;102901.09;5116745;28;20207;-69
2022/01/25 10:01:01;;;;;;;62.43;25.20;;;;;;;3.53;83.71;102900.25;5116924;28;20183;-69
2022/01/25 10:03:35;;;;;;;73.30;28.20;;;;;;;3.48;83.30;102905.31;5116546;28;20181;-69
2022/01/25 10:06:04;;;;;;;60.77;24.80;;;;;;;3.54;83.37;102902.00;5116765;28;20221;-69
2022/01/25 10:08:33;;;;;;;71.67;23.93;;;;;;;3.54;82.65;102902.00;5116522;28;20213;-69
2022/01/25 10:11:14;;;;;;;56.97;23.70;;;;;;;3.36;83.39;102906.75;5116755;28;20573;-69
2022/01/25 10:13:48;;;;;;;54.20;23.50;;;;;;;3.42;83.61;102910.34;5116748;28;20221;-69
2022/01/25 10:16:21;;;;;;;64.77;24.43;;;;;;;3.29;84.01;102916.97;5116408;28;20226;-69
2022/01/25 10:18:58;;;;;;;59.23;25.07;;;;;;;3.30;84.19;102917.84;5116563;28;20197;-69
2022/01/25 10:21:30;;;;;;;53.97;22.00;;;;;;;3.45;83.13;102907.84;5116250;28;20227;-69
2022/01/25 10:24:28;;;;;;;64.47;23.43;;;;;;;3.52;83.65;102908.88;5116563;28;20178;-69
2022/01/25 10:27:03;;;;;;;66.00;24.67;;;;;;;3.47;83.24;102915.66;5116688;28;20171;-69
2022/01/25 10:29:34;;;;;;;64.17;25.60;;;;;;;3.56;82.56;102911.56;5116395;28;20182;-69
2022/01/25 10:32:05;;;;;;;60.50;25.33;;;;;;;3.56;82.56;102914.13;5116337;28;20175;-69
2022/01/25 10:34:34;;;;;;;60.10;23.63;;;;;;;3.50;83.12;102918.31;5116276;28;20178;-69
2022/01/25 10:37:07;;;;;;;59.17;25.60;;;;;;;3.56;82.78;102913.28;5116241;28;20200;-69
2022/01/25 10:39:38;;;;;;;60.10;24.07;;;;;;;3.46;82.65;102914.78;5115937;28;20175;-69
2022/01/25 10:42:08;;;;;;;70.23;25.67;;;;;;;3.54;82.50;102915.84;5116186;28;20182;-69
2022/01/25 10:45:10;;;;;;;61.13;24.27;;;;;;;3.44;83.10;102913.88;5116071;28;20573;-69
2022/01/25 10:47:42;;;;;;;62.00;25.60;;;;;;;3.51;82.98;102910.59;5115863;28;20201;-69
2022/01/25 10:50:24;;;;;;;68.63;25.10;;;;;;;3.49;82.88;102911.38;5115702;28;20185;-69
2022/01/25 10:53:11;;;;;;;79.03;25.57;;;;;;;3.40;83.34;102914.63;5115307;28;20187;-69
2022/01/25 10:55:42;;;;;;;68.40;24.47;;;;;;;3.56;82.97;102911.56;5116175;28;20172;-69
2022/01/25 10:58:10;;;;;;;73.47;27.47;;;;;;;3.48;82.99;102905.31;5115608;28;20216;-69
2022/01/25 11:00:42;;;;;;;71.63;26.77;;;;;;;3.56;82.83;102906.38;5115477;28;20185;-69
2022/01/25 11:03:09;;;;;;;76.17;27.80;;;;;;;3.62;82.43;102910.81;5115470;28;20169;-69
2022/01/25 11:05:39;;;;;;;74.07;28.10;;;;;;;3.50;82.45;102906.25;5115833;28;20333;-69
2022/01/25 11:08:15;;;;;;;84.67;27.87;;;;;;;3.45;82.96;102913.03;5115827;28;20218;-69
2022/01/25 11:10:48;;;;;;;74.20;27.50;;;;;;;3.20;83.95;102910.69;5115556;28;20610;-69
2022/01/25 11:15:57;;;;;;;95.13;28.53;;;;;;;3.12;84.67;102902.72;5115439;28;20635;-69
2022/01/25 11:18:25;;;;;;;90.50;32.70;;;;;;;3.30;83.93;102912.69;5115079;28;20268;-69
2022/01/25 11:20:54;;;;;;;75.53;28.13;;;;;;;3.38;83.98;102905.97;5115392;28;20209;-69
2022/01/25 11:23:21;;;;;;;89.73;30.63;;;;;;;3.53;83.38;102905.44;5115015;28;20241;-69
2022/01/25 11:25:48;;;;;;;91.93;30.53;;;;;;;3.64;83.41;102905.66;5115207;28;20215;-69
2022/01/25 11:28:15;;;;;;;81.90;28.80;;;;;;;3.67;83.36;102905.75;5114940;28;20231;-69
2022/01/25 11:30:44;;;;;;;87.77;29.57;;;;;;;3.72;82.68;102906.75;5115138;28;20192;-69
2022/01/25 11:33:12;;;;;;;71.83;27.07;;;;;;;3.63;82.92;102901.34;5115296;28;20174;-69
2022/01/25 11:35:40;;;;;;;96.80;29.03;;;;;;;3.67;83.33;102895.41;5115309;28;20185;-69
2022/01/25 11:38:07;;;;;;;79.67;29.10;;;;;;;3.70;83.74;102895.44;5114902;28;20214;-69
2022/01/25 11:40:38;;;;;;;79.33;30.03;;;;;;;3.81;83.33;102894.84;5114666;28;20238;-69
2022/01/25 11:43:10;;;;;;;81.17;28.77;;;;;;;3.82;83.20;102887.97;5114904;28;20678;-69
2022/01/25 11:45:40;;;;;;;80.70;29.37;;;;;;;3.85;83.54;102890.59;5114779;28;20542;-69
2022/01/25 11:48:07;;;;;;;80.23;30.17;;;;;;;3.86;83.58;102889.78;5114757;28;20644;-69
2022/01/25 11:50:36;;;;;;;100.70;31.27;;;;;;;3.85;83.74;102894.06;5114479;28;20185;-69
2022/01/25 11:53:08;;;;;;;84.43;30.30;;;;;;;3.92;83.60;102902.84;5114402;28;20194;-69
2022/01/25 11:55:36;;;;;;;93.80;30.40;;;;;;;3.86;83.51;102895.84;5114953;28;20710;-69
2022/01/25 11:58:05;;;;;;;84.60;30.27;;;;;;;3.82;83.48;102882.78;5114138;28;20212;-69
2022/01/25 12:00:51;;;;;;;98.07;30.43;;;;;;;3.75;83.46;102886.94;5096318;28;20232;-69
2022/01/25 12:03:26;;;;;;;87.03;28.47;;;;;;;3.81;83.43;102887.09;5114187;28;20192;-69
2022/01/25 12:06:26;;;;;;;94.90;30.73;;;;;;;3.88;82.60;102885.50;5113180;28;20231;-69
2022/01/25 12:09:06;;;;;;;85.47;31.03;;;;;;;3.90;83.05;102885.53;5114154;28;20208;-69
2022/01/25 12:11:49;;;;;;;78.77;28.93;;;;;;;3.82;82.69;102887.97;5096420;28;20675;-69
2022/01/25 12:14:22;;;;;;;78.17;28.03;;;;;;;3.78;82.99;102881.81;5114435;28;20620;-69
2022/01/25 12:17:02;;;;;;;86.83;26.90;;;;;;;3.76;83.21;102882.63;5114918;28;20177;-70
2022/01/25 12:19:35;;;;;;;72.80;28.67;;;;;;;3.86;82.74;102887.19;5114484;28;20271;-69
2022/01/25 12:22:11;;;;;;;81.07;28.17;;;;;;;3.86;82.99;102879.41;5114295;28;20174;-69
2022/01/25 12:24:42;;;;;;;81.87;27.87;;;;;;;3.91;82.59;102875.19;5113991;28;20168;-69
2022/01/25 12:30:08;;;;;;;79.57;28.73;;;;;;;3.85;82.13;102877.66;5114452;28;20176;-69
2022/01/25 12:32:36;;;;;;;69.07;26.77;;;;;;;3.87;81.84;102875.97;5113982;28;20233;-69
2022/01/25 12:35:12;;;;;;;74.00;27.80;;;;;;;3.85;81.89;102867.28;5113672;28;20558;-69
2022/01/25 12:37:42;;;;;;;75.90;26.87;;;;;;;3.79;82.38;102864.59;5095397;28;20212;-70
2022/01/25 12:40:29;;;;;;;65.60;27.10;;;;;;;3.70;82.86;102862.66;5113973;28;20188;-69
2022/01/25 12:43:02;;;;;;;80.20;28.03;;;;;;;3.76;82.82;102861.91;5113670;28;20626;-69
2022/01/25 12:45:32;;;;;;;67.90;27.03;;;;;;;3.81;82.83;102849.94;5113910;28;20265;-69
2022/01/25 12:48:02;;;;;;;75.60;27.60;;;;;;;3.84;82.39;102856.03;5113755;28;20216;-69
2022/01/25 12:50:29;;;;;;;75.33;29.07;;;;;;;3.81;82.71;102850.81;5113579;28;20535;-69
2022/01/25 12:52:59;;;;;;;77.90;27.87;;;;;;;3.90;82.70;102844.94;5113600;28;20245;-69
2022/01/25 12:55:33;;;;;;;83.47;29.27;;;;;;;3.85;82.18;102842.25;5113869;28;20183;-69
2022/01/25 12:58:00;;;;;;;75.73;28.17;;;;;;;3.70;81.69;102844.50;5113817;28;20233;-69
2022/01/25 13:00:32;;;;;;;68.67;27.97;;;;;;;3.79;81.44;102842.13;5113871;28;20244;-69
2022/01/25 13:03:17;;;;;;;95.73;28.40;;;;;;;3.76;81.62;102843.78;5113616;28;20189;-69
2022/01/25 13:05:50;;;;;;;84.20;29.53;;;;;;;3.72;82.10;102834.22;5114028;28;20523;-69
2022/01/25 13:08:26;;;;;;;87.63;28.37;;;;;;;3.74;81.91;102830.78;5113737;28;20685;-69
2022/01/25 13:11:13;;;;;;;69.37;27.57;;;;;;;3.86;81.81;102830.19;5113489;28;20208;-69
2022/01/25 13:13:58;;;;;;;75.33;27.73;;;;;;;3.79;81.85;102825.72;5095915;28;20610;-69